sensor_id;sensor_type;location;lat;lon;timestamp;P1;durP1;ratioP1;P2;durP2;ratioP2
47367;SDS011;34646;47.964;7.982;2022-09-09T00:04:20;2.38;;;0.50;;
47367;SDS011;34646;47.964;7.982;2022-09-09T00:10:41;1.20;;;0.40;;
47367;SDS011;34646;47.964;7.982;2022-09-09T00:16:47;0.90;;;0.30;;
47367;SDS011;34646;47.964;7.982;2022-09-09T00:22:57;0.65;;;0.20;;
47367;SDS011;34646;47.964;7.982;2022-09-09T00:29:13;3.20;;;0.55;;
47367;SDS011;34646;47.964;7.982;2022-09-09T00:35:30;1.55;;;0.38;;
47367;SDS011;34646;47.964;7.982;2022-09-09T00:42:40;1.13;;;0.50;;
47367;SDS011;34646;47.964;7.982;2022-09-09T00:48:25;0.82;;;0.25;;
47367;SDS011;34646;47.964;7.982;2022-09-09T00:54:38;1.05;;;0.40;;
47367;SDS011;34646;47.964;7.982;2022-09-09T01:00:52;1.45;;;0.43;;
47367;SDS011;34646;47.964;7.982;2022-09-09T01:07:09;1.70;;;0.38;;
47367;SDS011;34646;47.964;7.982;2022-09-09T01:13:25;2.90;;;0.32;;
47367;SDS011;34646;47.964;7.982;2022-09-09T01:38:41;3.00;;;0.47;;
47367;SDS011;34646;47.964;7.982;2022-09-09T01:44:42;1.52;;;0.40;;
47367;SDS011;34646;47.964;7.982;2022-09-09T01:50:43;0.85;;;0.40;;
47367;SDS011;34646;47.964;7.982;2022-09-09T02:03:06;1.48;;;0.40;;
47367;SDS011;34646;47.964;7.982;2022-09-09T02:09:30;2.88;;;0.43;;
47367;SDS011;34646;47.964;7.982;2022-09-09T02:15:34;1.48;;;0.38;;
47367;SDS011;34646;47.964;7.982;2022-09-09T02:21:55;0.90;;;0.40;;
47367;SDS011;34646;47.964;7.982;2022-09-09T02:27:58;0.75;;;0.30;;
47367;SDS011;34646;47.964;7.982;2022-09-09T02:34:00;1.15;;;0.40;;
47367;SDS011;34646;47.964;7.982;2022-09-09T02:40:04;1.02;;;0.38;;
47367;SDS011;34646;47.964;7.982;2022-09-09T02:59:02;3.35;;;0.80;;
47367;SDS011;34646;47.964;7.982;2022-09-09T03:05:05;1.25;;;0.57;;
47367;SDS011;34646;47.964;7.982;2022-09-09T03:11:07;1.63;;;0.40;;
47367;SDS011;34646;47.964;7.982;2022-09-09T03:17:11;2.47;;;0.50;;
47367;SDS011;34646;47.964;7.982;2022-09-09T03:23:19;1.42;;;0.40;;
47367;SDS011;34646;47.964;7.982;2022-09-09T03:29:21;1.10;;;0.30;;
47367;SDS011;34646;47.964;7.982;2022-09-09T03:35:23;1.80;;;0.40;;
47367;SDS011;34646;47.964;7.982;2022-09-09T03:41:24;0.70;;;0.30;;
47367;SDS011;34646;47.964;7.982;2022-09-09T03:47:26;3.63;;;0.50;;
47367;SDS011;34646;47.964;7.982;2022-09-09T03:53:33;1.13;;;0.30;;
47367;SDS011;34646;47.964;7.982;2022-09-09T03:59:35;1.58;;;0.30;;
47367;SDS011;34646;47.964;7.982;2022-09-09T04:05:39;1.02;;;0.22;;
47367;SDS011;34646;47.964;7.982;2022-09-09T04:11:42;2.67;;;0.43;;
47367;SDS011;34646;47.964;7.982;2022-09-09T04:17:43;2.13;;;0.50;;
47367;SDS011;34646;47.964;7.982;2022-09-09T04:23:45;1.05;;;0.30;;
47367;SDS011;34646;47.964;7.982;2022-09-09T04:29:46;0.83;;;0.33;;
47367;SDS011;34646;47.964;7.982;2022-09-09T04:35:48;1.20;;;0.32;;
47367;SDS011;34646;47.964;7.982;2022-09-09T04:41:51;1.30;;;0.43;;
47367;SDS011;34646;47.964;7.982;2022-09-09T04:47:55;1.67;;;0.45;;
47367;SDS011;34646;47.964;7.982;2022-09-09T04:53:56;1.13;;;0.40;;
47367;SDS011;34646;47.964;7.982;2022-09-09T04:59:57;1.38;;;0.40;;
47367;SDS011;34646;47.964;7.982;2022-09-09T05:06:12;5.28;;;0.63;;
47367;SDS011;34646;47.964;7.982;2022-09-09T05:12:15;2.58;;;0.60;;
47367;SDS011;34646;47.964;7.982;2022-09-09T05:18:24;2.25;;;0.77;;
47367;SDS011;34646;47.964;7.982;2022-09-09T05:24:25;3.10;;;1.10;;
47367;SDS011;34646;47.964;7.982;2022-09-09T05:30:28;3.40;;;0.75;;
47367;SDS011;34646;47.964;7.982;2022-09-09T05:36:29;2.40;;;0.63;;
47367;SDS011;34646;47.964;7.982;2022-09-09T05:48:34;4.05;;;1.33;;
47367;SDS011;34646;47.964;7.982;2022-09-09T05:54:36;2.05;;;0.90;;
47367;SDS011;34646;47.964;7.982;2022-09-09T06:00:37;3.10;;;0.70;;
47367;SDS011;34646;47.964;7.982;2022-09-09T06:06:38;2.03;;;0.80;;
47367;SDS011;34646;47.964;7.982;2022-09-09T06:12:52;1.40;;;0.40;;
47367;SDS011;34646;47.964;7.982;2022-09-09T06:18:54;2.53;;;0.52;;
47367;SDS011;34646;47.964;7.982;2022-09-09T06:24:57;1.63;;;0.47;;
47367;SDS011;34646;47.964;7.982;2022-09-09T06:31:02;2.23;;;0.30;;
47367;SDS011;34646;47.964;7.982;2022-09-09T06:37:05;2.00;;;0.52;;
47367;SDS011;34646;47.964;7.982;2022-09-09T06:43:12;2.47;;;0.80;;
47367;SDS011;34646;47.964;7.982;2022-09-09T06:49:20;1.70;;;0.50;;
47367;SDS011;34646;47.964;7.982;2022-09-09T06:55:21;2.60;;;0.50;;
47367;SDS011;34646;47.964;7.982;2022-09-09T07:01:23;4.40;;;0.70;;
47367;SDS011;34646;47.964;7.982;2022-09-09T07:07:26;1.17;;;0.32;;
47367;SDS011;34646;47.964;7.982;2022-09-09T07:13:27;0.70;;;0.30;;
47367;SDS011;34646;47.964;7.982;2022-09-09T07:19:29;2.67;;;0.40;;
47367;SDS011;34646;47.964;7.982;2022-09-09T07:25:30;1.73;;;0.47;;
47367;SDS011;34646;47.964;7.982;2022-09-09T07:37:36;1.67;;;0.38;;
47367;SDS011;34646;47.964;7.982;2022-09-09T07:43:41;1.75;;;0.40;;
47367;SDS011;34646;47.964;7.982;2022-09-09T07:49:43;0.77;;;0.50;;
47367;SDS011;34646;47.964;7.982;2022-09-09T07:55:47;4.90;;;0.63;;
47367;SDS011;34646;47.964;7.982;2022-09-09T08:01:49;3.73;;;0.63;;
47367;SDS011;34646;47.964;7.982;2022-09-09T08:07:54;2.78;;;0.50;;
47367;SDS011;34646;47.964;7.982;2022-09-09T08:13:55;2.00;;;0.73;;
47367;SDS011;34646;47.964;7.982;2022-09-09T08:26:08;2.30;;;0.40;;
47367;SDS011;34646;47.964;7.982;2022-09-09T08:32:15;2.75;;;0.40;;
47367;SDS011;34646;47.964;7.982;2022-09-09T08:38:18;1.83;;;0.60;;
47367;SDS011;34646;47.964;7.982;2022-09-09T08:50:38;1.25;;;0.50;;
47367;SDS011;34646;47.964;7.982;2022-09-09T08:56:48;1.23;;;0.30;;
47367;SDS011;34646;47.964;7.982;2022-09-09T09:03:00;1.08;;;0.35;;
47367;SDS011;34646;47.964;7.982;2022-09-09T09:16:19;1.27;;;0.40;;
47367;SDS011;34646;47.964;7.982;2022-09-09T09:22:43;0.93;;;0.30;;
47367;SDS011;34646;47.964;7.982;2022-09-09T09:28:52;2.25;;;0.20;;
47367;SDS011;34646;47.964;7.982;2022-09-09T09:34:56;1.67;;;0.38;;
47367;SDS011;34646;47.964;7.982;2022-09-09T09:41:02;1.80;;;0.50;;
47367;SDS011;34646;47.964;7.982;2022-09-09T09:47:08;1.23;;;0.40;;
47367;SDS011;34646;47.964;7.982;2022-09-09T09:53:18;1.80;;;0.50;;
47367;SDS011;34646;47.964;7.982;2022-09-09T09:59:34;2.70;;;0.50;;
47367;SDS011;34646;47.964;7.982;2022-09-09T10:05:37;1.55;;;0.52;;
47367;SDS011;34646;47.964;7.982;2022-09-09T10:12:48;3.08;;;0.55;;
47367;SDS011;34646;47.964;7.982;2022-09-09T10:31:19;2.53;;;0.50;;
47367;SDS011;34646;47.964;7.982;2022-09-09T10:56:41;2.30;;;0.80;;
47367;SDS011;34646;47.964;7.982;2022-09-09T11:02:47;4.30;;;0.80;;
47367;SDS011;34646;47.964;7.982;2022-09-09T11:09:17;5.50;;;1.00;;
47367;SDS011;34646;47.964;7.982;2022-09-09T11:15:23;5.82;;;0.93;;
47367;SDS011;34646;47.964;7.982;2022-09-09T11:21:40;3.30;;;0.90;;
47367;SDS011;34646;47.964;7.982;2022-09-09T11:34:26;2.42;;;0.60;;
47367;SDS011;34646;47.964;7.982;2022-09-09T11:40:38;6.22;;;0.90;;
47367;SDS011;34646;47.964;7.982;2022-09-09T11:46:39;7.32;;;1.10;;
47367;SDS011;34646;47.964;7.982;2022-09-09T11:52:42;5.95;;;0.70;;
47367;SDS011;34646;47.964;7.982;2022-09-09T11:59:04;5.80;;;1.08;;
47367;SDS011;34646;47.964;7.982;2022-09-09T12:05:19;5.37;;;0.83;;
47367;SDS011;34646;47.964;7.982;2022-09-09T12:11:28;4.25;;;0.82;;
47367;SDS011;34646;47.964;7.982;2022-09-09T12:17:31;1.85;;;0.60;;
47367;SDS011;34646;47.964;7.982;2022-09-09T12:29:50;7.10;;;1.05;;
47367;SDS011;34646;47.964;7.982;2022-09-09T12:36:03;6.00;;;0.60;;
47367;SDS011;34646;47.964;7.982;2022-09-09T12:42:19;3.05;;;0.60;;
47367;SDS011;34646;47.964;7.982;2022-09-09T12:54:30;4.88;;;0.85;;
47367;SDS011;34646;47.964;7.982;2022-09-09T13:00:32;1.45;;;0.40;;
47367;SDS011;34646;47.964;7.982;2022-09-09T13:06:34;3.22;;;0.60;;
47367;SDS011;34646;47.964;7.982;2022-09-09T13:12:35;3.70;;;0.73;;
47367;SDS011;34646;47.964;7.982;2022-09-09T13:18:36;6.10;;;1.03;;
47367;SDS011;34646;47.964;7.982;2022-09-09T13:24:40;3.40;;;0.57;;
47367;SDS011;34646;47.964;7.982;2022-09-09T13:30:42;4.10;;;0.73;;
47367;SDS011;34646;47.964;7.982;2022-09-09T13:36:46;3.83;;;0.73;;
47367;SDS011;34646;47.964;7.982;2022-09-09T13:42:51;2.45;;;0.60;;
47367;SDS011;34646;47.964;7.982;2022-09-09T13:48:56;2.72;;;0.60;;
47367;SDS011;34646;47.964;7.982;2022-09-09T13:54:58;4.43;;;0.90;;
47367;SDS011;34646;47.964;7.982;2022-09-09T14:00:59;3.65;;;0.70;;
47367;SDS011;34646;47.964;7.982;2022-09-09T14:07:00;8.50;;;1.47;;
47367;SDS011;34646;47.964;7.982;2022-09-09T14:13:02;4.15;;;0.98;;
47367;SDS011;34646;47.964;7.982;2022-09-09T14:19:03;8.32;;;1.00;;
47367;SDS011;34646;47.964;7.982;2022-09-09T14:25:04;4.63;;;0.85;;
47367;SDS011;34646;47.964;7.982;2022-09-09T14:31:06;4.90;;;0.85;;
47367;SDS011;34646;47.964;7.982;2022-09-09T14:37:07;3.85;;;0.70;;
47367;SDS011;34646;47.964;7.982;2022-09-09T14:43:09;5.53;;;0.90;;
47367;SDS011;34646;47.964;7.982;2022-09-09T14:49:11;4.38;;;0.75;;
47367;SDS011;34646;47.964;7.982;2022-09-09T14:55:13;4.10;;;1.02;;
47367;SDS011;34646;47.964;7.982;2022-09-09T15:07:16;5.45;;;0.73;;
47367;SDS011;34646;47.964;7.982;2022-09-09T15:13:19;5.60;;;1.10;;
47367;SDS011;34646;47.964;7.982;2022-09-09T15:19:20;5.47;;;0.93;;
47367;SDS011;34646;47.964;7.982;2022-09-09T15:25:20;6.60;;;0.90;;
47367;SDS011;34646;47.964;7.982;2022-09-09T15:31:23;6.68;;;1.63;;
47367;SDS011;34646;47.964;7.982;2022-09-09T15:37:25;2.28;;;0.70;;
47367;SDS011;34646;47.964;7.982;2022-09-09T15:43:25;5.80;;;0.57;;
47367;SDS011;34646;47.964;7.982;2022-09-09T15:49:26;7.27;;;0.90;;
47367;SDS011;34646;47.964;7.982;2022-09-09T15:55:27;2.47;;;0.63;;
47367;SDS011;34646;47.964;7.982;2022-09-09T16:13:32;2.33;;;0.55;;
47367;SDS011;34646;47.964;7.982;2022-09-09T16:19:34;5.55;;;0.73;;
47367;SDS011;34646;47.964;7.982;2022-09-09T16:25:35;4.88;;;0.68;;
47367;SDS011;34646;47.964;7.982;2022-09-09T16:31:35;1.97;;;0.70;;
47367;SDS011;34646;47.964;7.982;2022-09-09T16:37:36;4.28;;;0.85;;
47367;SDS011;34646;47.964;7.982;2022-09-09T16:43:37;3.23;;;0.70;;
47367;SDS011;34646;47.964;7.982;2022-09-09T16:49:40;1.55;;;0.45;;
47367;SDS011;34646;47.964;7.982;2022-09-09T16:55:41;2.80;;;0.77;;
47367;SDS011;34646;47.964;7.982;2022-09-09T17:01:43;3.55;;;0.50;;
47367;SDS011;34646;47.964;7.982;2022-09-09T17:07:44;2.90;;;0.70;;
47367;SDS011;34646;47.964;7.982;2022-09-09T17:13:46;2.23;;;0.40;;
47367;SDS011;34646;47.964;7.982;2022-09-09T17:19:47;4.85;;;0.70;;
47367;SDS011;34646;47.964;7.982;2022-09-09T17:25:57;2.40;;;0.40;;
47367;SDS011;34646;47.964;7.982;2022-09-09T17:31:58;1.70;;;0.60;;
47367;SDS011;34646;47.964;7.982;2022-09-09T17:37:59;2.03;;;0.60;;
47367;SDS011;34646;47.964;7.982;2022-09-09T17:44:00;2.90;;;0.60;;
47367;SDS011;34646;47.964;7.982;2022-09-09T17:50:00;4.07;;;0.33;;
47367;SDS011;34646;47.964;7.982;2022-09-09T17:56:05;3.80;;;0.70;;
47367;SDS011;34646;47.964;7.982;2022-09-09T18:02:08;1.63;;;0.35;;
47367;SDS011;34646;47.964;7.982;2022-09-09T18:08:11;1.88;;;0.50;;
47367;SDS011;34646;47.964;7.982;2022-09-09T18:14:16;1.05;;;0.32;;
47367;SDS011;34646;47.964;7.982;2022-09-09T18:20:19;2.60;;;0.40;;
47367;SDS011;34646;47.964;7.982;2022-09-09T18:26:24;1.27;;;0.40;;
47367;SDS011;34646;47.964;7.982;2022-09-09T18:32:26;1.67;;;0.45;;
47367;SDS011;34646;47.964;7.982;2022-09-09T18:38:30;3.78;;;0.50;;
47367;SDS011;34646;47.964;7.982;2022-09-09T18:44:34;3.53;;;0.45;;
47367;SDS011;34646;47.964;7.982;2022-09-09T18:50:35;5.77;;;0.67;;
47367;SDS011;34646;47.964;7.982;2022-09-09T18:56:36;4.53;;;0.70;;
47367;SDS011;34646;47.964;7.982;2022-09-09T19:02:36;4.60;;;0.77;;
47367;SDS011;34646;47.964;7.982;2022-09-09T19:08:39;3.00;;;0.60;;
47367;SDS011;34646;47.964;7.982;2022-09-09T19:14:41;2.45;;;0.47;;
47367;SDS011;34646;47.964;7.982;2022-09-09T19:20:42;4.07;;;0.73;;
47367;SDS011;34646;47.964;7.982;2022-09-09T19:26:43;2.13;;;0.50;;
47367;SDS011;34646;47.964;7.982;2022-09-09T19:32:47;2.25;;;0.55;;
47367;SDS011;34646;47.964;7.982;2022-09-09T19:38:47;1.37;;;0.40;;
47367;SDS011;34646;47.964;7.982;2022-09-09T19:44:48;3.75;;;0.70;;
47367;SDS011;34646;47.964;7.982;2022-09-09T19:50:49;12.38;;;1.05;;
47367;SDS011;34646;47.964;7.982;2022-09-09T19:56:50;3.07;;;0.67;;
47367;SDS011;34646;47.964;7.982;2022-09-09T20:02:51;5.50;;;0.70;;
47367;SDS011;34646;47.964;7.982;2022-09-09T20:08:53;1.90;;;0.50;;
47367;SDS011;34646;47.964;7.982;2022-09-09T20:14:54;3.58;;;0.70;;
47367;SDS011;34646;47.964;7.982;2022-09-09T20:20:56;5.07;;;0.60;;
47367;SDS011;34646;47.964;7.982;2022-09-09T20:26:59;3.40;;;0.90;;
47367;SDS011;34646;47.964;7.982;2022-09-09T20:33:00;4.20;;;0.50;;
47367;SDS011;34646;47.964;7.982;2022-09-09T20:39:02;4.15;;;0.50;;
47367;SDS011;34646;47.964;7.982;2022-09-09T20:45:14;2.25;;;0.95;;
47367;SDS011;34646;47.964;7.982;2022-09-09T20:51:16;2.90;;;0.50;;
47367;SDS011;34646;47.964;7.982;2022-09-09T20:57:18;3.70;;;0.50;;
47367;SDS011;34646;47.964;7.982;2022-09-09T21:03:21;1.73;;;0.60;;
47367;SDS011;34646;47.964;7.982;2022-09-09T21:09:22;5.75;;;1.15;;
47367;SDS011;34646;47.964;7.982;2022-09-09T21:21:24;1.33;;;0.40;;
47367;SDS011;34646;47.964;7.982;2022-09-09T21:27:25;3.88;;;0.73;;
47367;SDS011;34646;47.964;7.982;2022-09-09T21:33:26;1.23;;;0.20;;
47367;SDS011;34646;47.964;7.982;2022-09-09T21:39:28;3.05;;;0.80;;
47367;SDS011;34646;47.964;7.982;2022-09-09T21:45:29;2.30;;;0.40;;
47367;SDS011;34646;47.964;7.982;2022-09-09T21:51:29;6.53;;;1.02;;
47367;SDS011;34646;47.964;7.982;2022-09-09T21:57:30;4.77;;;1.17;;
47367;SDS011;34646;47.964;7.982;2022-09-09T22:03:31;6.13;;;1.33;;
47367;SDS011;34646;47.964;7.982;2022-09-09T22:09:32;7.45;;;1.35;;
47367;SDS011;34646;47.964;7.982;2022-09-09T22:21:35;8.20;;;1.45;;
47367;SDS011;34646;47.964;7.982;2022-09-09T22:27:35;9.07;;;1.93;;
47367;SDS011;34646;47.964;7.982;2022-09-09T22:33:36;7.93;;;1.30;;
47367;SDS011;34646;47.964;7.982;2022-09-09T22:39:37;4.43;;;1.20;;
47367;SDS011;34646;47.964;7.982;2022-09-09T22:45:38;4.17;;;0.90;;
47367;SDS011;34646;47.964;7.982;2022-09-09T22:51:38;6.80;;;1.60;;
47367;SDS011;34646;47.964;7.982;2022-09-09T22:57:39;4.17;;;1.03;;
47367;SDS011;34646;47.964;7.982;2022-09-09T23:03:41;5.47;;;0.98;;
47367;SDS011;34646;47.964;7.982;2022-09-09T23:09:45;3.70;;;0.82;;
47367;SDS011;34646;47.964;7.982;2022-09-09T23:15:46;7.40;;;1.33;;
47367;SDS011;34646;47.964;7.982;2022-09-09T23:21:47;4.43;;;1.00;;
47367;SDS011;34646;47.964;7.982;2022-09-09T23:27:49;5.03;;;1.00;;
47367;SDS011;34646;47.964;7.982;2022-09-09T23:33:50;4.20;;;0.77;;
47367;SDS011;34646;47.964;7.982;2022-09-09T23:39:54;6.82;;;1.00;;
47367;SDS011;34646;47.964;7.982;2022-09-09T23:45:55;3.23;;;1.00;;
47367;SDS011;34646;47.964;7.982;2022-09-09T23:51:56;3.85;;;0.80;;
47367;SDS011;34646;47.964;7.982;2022-09-09T23:57:57;2.67;;;0.60;;
